sensor_id;sensor_type;location;lat;lon;timestamp;temperature;humidity
79301;SHT31;68755;51.984;5.646;2023-10-19T00:01:17;11.6;87.8
79301;SHT31;68755;51.984;5.646;2023-10-19T00:03:51;11.6;87.7
79301;SHT31;68755;51.984;5.646;2023-10-19T00:06:23;11.6;87.7
79301;SHT31;68755;51.984;5.646;2023-10-19T00:08:53;11.7;87.7
79301;SHT31;68755;51.984;5.646;2023-10-19T00:11:22;11.7;87.9
79301;SHT31;68755;51.984;5.646;2023-10-19T00:13:55;11.8;87.8
79301;SHT31;68755;51.984;5.646;2023-10-19T00:16:25;11.8;87.8
79301;SHT31;68755;51.984;5.646;2023-10-19T00:18:56;11.9;87.6
79301;SHT31;68755;51.984;5.646;2023-10-19T00:21:27;12.0;87.3
79301;SHT31;68755;51.984;5.646;2023-10-19T00:23:57;12.1;86.9
79301;SHT31;68755;51.984;5.646;2023-10-19T00:26:32;12.1;86.7
79301;SHT31;68755;51.984;5.646;2023-10-19T00:29:01;12.2;86.6
79301;SHT31;68755;51.984;5.646;2023-10-19T00:31:39;12.3;86.4
79301;SHT31;68755;51.984;5.646;2023-10-19T00:34:08;12.3;86.3
79301;SHT31;68755;51.984;5.646;2023-10-19T00:36:40;12.4;86.2
79301;SHT31;68755;51.984;5.646;2023-10-19T00:39:10;12.4;86.0
79301;SHT31;68755;51.984;5.646;2023-10-19T00:41:48;12.5;85.8
79301;SHT31;68755;51.984;5.646;2023-10-19T00:44:21;12.5;85.5
79301;SHT31;68755;51.984;5.646;2023-10-19T00:46:57;12.5;85.3
79301;SHT31;68755;51.984;5.646;2023-10-19T00:49:31;12.6;85.3
79301;SHT31;68755;51.984;5.646;2023-10-19T00:52:01;12.6;85.4
79301;SHT31;68755;51.984;5.646;2023-10-19T00:54:46;12.6;85.6
79301;SHT31;68755;51.984;5.646;2023-10-19T00:57:23;12.6;85.6
79301;SHT31;68755;51.984;5.646;2023-10-19T01:00:01;12.6;85.6
79301;SHT31;68755;51.984;5.646;2023-10-19T01:02:39;12.6;85.7
79301;SHT31;68755;51.984;5.646;2023-10-19T01:05:13;12.6;85.8
79301;SHT31;68755;51.984;5.646;2023-10-19T01:07:48;12.6;85.9
79301;SHT31;68755;51.984;5.646;2023-10-19T01:10:24;12.6;86.2
79301;SHT31;68755;51.984;5.646;2023-10-19T01:12:55;12.6;86.4
79301;SHT31;68755;51.984;5.646;2023-10-19T01:15:26;12.7;86.4
79301;SHT31;68755;51.984;5.646;2023-10-19T01:18:03;12.7;86.5
79301;SHT31;68755;51.984;5.646;2023-10-19T01:20:38;12.7;86.5
79301;SHT31;68755;51.984;5.646;2023-10-19T01:23:18;12.7;86.7
79301;SHT31;68755;51.984;5.646;2023-10-19T01:25:55;12.7;86.8
79301;SHT31;68755;51.984;5.646;2023-10-19T01:28:37;12.7;86.8
79301;SHT31;68755;51.984;5.646;2023-10-19T01:31:17;12.7;87.0
79301;SHT31;68755;51.984;5.646;2023-10-19T01:33:50;12.7;87.1
79301;SHT31;68755;51.984;5.646;2023-10-19T01:36:23;12.8;87.3
79301;SHT31;68755;51.984;5.646;2023-10-19T01:38:57;12.8;87.4
79301;SHT31;68755;51.984;5.646;2023-10-19T01:41:29;12.8;87.5
79301;SHT31;68755;51.984;5.646;2023-10-19T01:44:00;12.8;87.6
79301;SHT31;68755;51.984;5.646;2023-10-19T01:46:35;12.8;87.9
79301;SHT31;68755;51.984;5.646;2023-10-19T01:49:05;12.8;88.0
79301;SHT31;68755;51.984;5.646;2023-10-19T01:51:36;12.9;88.1
79301;SHT31;68755;51.984;5.646;2023-10-19T01:54:07;12.9;87.9
79301;SHT31;68755;51.984;5.646;2023-10-19T01:56:37;12.9;88.0
79301;SHT31;68755;51.984;5.646;2023-10-19T01:59:10;13.0;87.9
79301;SHT31;68755;51.984;5.646;2023-10-19T02:01:43;13.0;88.0
79301;SHT31;68755;51.984;5.646;2023-10-19T02:04:13;13.0;88.1
79301;SHT31;68755;51.984;5.646;2023-10-19T02:06:43;13.0;88.2
79301;SHT31;68755;51.984;5.646;2023-10-19T02:09:15;13.1;88.2
79301;SHT31;68755;51.984;5.646;2023-10-19T02:11:54;13.1;88.2
79301;SHT31;68755;51.984;5.646;2023-10-19T02:14:26;13.1;88.1
79301;SHT31;68755;51.984;5.646;2023-10-19T02:17:00;13.2;88.1
79301;SHT31;68755;51.984;5.646;2023-10-19T02:19:31;13.2;88.0
79301;SHT31;68755;51.984;5.646;2023-10-19T02:22:02;13.2;88.1
79301;SHT31;68755;51.984;5.646;2023-10-19T02:24:35;13.2;88.2
79301;SHT31;68755;51.984;5.646;2023-10-19T02:27:06;13.3;88.5
79301;SHT31;68755;51.984;5.646;2023-10-19T02:29:36;13.3;88.4
79301;SHT31;68755;51.984;5.646;2023-10-19T02:32:08;13.3;88.4
79301;SHT31;68755;51.984;5.646;2023-10-19T02:34:38;13.3;88.5
79301;SHT31;68755;51.984;5.646;2023-10-19T02:37:08;13.3;88.5
79301;SHT31;68755;51.984;5.646;2023-10-19T02:39:38;13.4;88.5
79301;SHT31;68755;51.984;5.646;2023-10-19T02:42:08;13.4;88.6
79301;SHT31;68755;51.984;5.646;2023-10-19T02:44:37;13.4;88.6
79301;SHT31;68755;51.984;5.646;2023-10-19T02:47:07;13.4;88.7
79301;SHT31;68755;51.984;5.646;2023-10-19T02:49:38;13.4;88.6
79301;SHT31;68755;51.984;5.646;2023-10-19T02:52:10;13.5;88.6
79301;SHT31;68755;51.984;5.646;2023-10-19T02:54:43;13.5;88.7
79301;SHT31;68755;51.984;5.646;2023-10-19T02:57:13;13.5;88.8
79301;SHT31;68755;51.984;5.646;2023-10-19T02:59:43;13.5;89.0
79301;SHT31;68755;51.984;5.646;2023-10-19T03:02:14;13.6;89.1
79301;SHT31;68755;51.984;5.646;2023-10-19T03:04:45;13.6;89.3
79301;SHT31;68755;51.984;5.646;2023-10-19T03:07:16;13.6;89.2
79301;SHT31;68755;51.984;5.646;2023-10-19T03:09:46;13.6;89.2
79301;SHT31;68755;51.984;5.646;2023-10-19T03:12:21;13.7;89.0
79301;SHT31;68755;51.984;5.646;2023-10-19T03:14:54;13.7;89.2
79301;SHT31;68755;51.984;5.646;2023-10-19T03:17:23;13.7;89.1
79301;SHT31;68755;51.984;5.646;2023-10-19T03:19:55;13.7;89.1
79301;SHT31;68755;51.984;5.646;2023-10-19T03:22:25;13.7;89.0
79301;SHT31;68755;51.984;5.646;2023-10-19T03:24:55;13.8;89.2
79301;SHT31;68755;51.984;5.646;2023-10-19T03:27:33;13.8;89.2
79301;SHT31;68755;51.984;5.646;2023-10-19T03:30:04;13.8;89.2
79301;SHT31;68755;51.984;5.646;2023-10-19T03:32:35;13.8;89.3
79301;SHT31;68755;51.984;5.646;2023-10-19T03:35:05;13.9;89.1
79301;SHT31;68755;51.984;5.646;2023-10-19T03:37:35;13.9;89.2
79301;SHT31;68755;51.984;5.646;2023-10-19T03:40:05;13.9;88.8
79301;SHT31;68755;51.984;5.646;2023-10-19T03:42:38;13.9;88.8
79301;SHT31;68755;51.984;5.646;2023-10-19T03:45:11;14.0;88.7
79301;SHT31;68755;51.984;5.646;2023-10-19T03:47:42;14.0;88.7
79301;SHT31;68755;51.984;5.646;2023-10-19T03:50:18;14.0;88.7
79301;SHT31;68755;51.984;5.646;2023-10-19T03:52:50;14.0;88.7
79301;SHT31;68755;51.984;5.646;2023-10-19T03:55:21;14.1;88.5
79301;SHT31;68755;51.984;5.646;2023-10-19T03:57:50;14.1;88.5
79301;SHT31;68755;51.984;5.646;2023-10-19T04:00:22;14.1;88.5
79301;SHT31;68755;51.984;5.646;2023-10-19T04:02:57;14.1;88.3
79301;SHT31;68755;51.984;5.646;2023-10-19T04:05:28;14.1;88.2
79301;SHT31;68755;51.984;5.646;2023-10-19T04:07:59;14.2;88.4
79301;SHT31;68755;51.984;5.646;2023-10-19T04:10:33;14.2;88.5
79301;SHT31;68755;51.984;5.646;2023-10-19T04:13:12;14.2;88.6
79301;SHT31;68755;51.984;5.646;2023-10-19T04:15:42;14.2;88.4
79301;SHT31;68755;51.984;5.646;2023-10-19T04:18:12;14.2;88.4
79301;SHT31;68755;51.984;5.646;2023-10-19T04:20:43;14.2;88.7
79301;SHT31;68755;51.984;5.646;2023-10-19T04:23:27;14.3;88.5
79301;SHT31;68755;51.984;5.646;2023-10-19T04:26:02;14.3;88.4
79301;SHT31;68755;51.984;5.646;2023-10-19T04:28:39;14.3;88.4
79301;SHT31;68755;51.984;5.646;2023-10-19T04:31:13;14.3;88.4
79301;SHT31;68755;51.984;5.646;2023-10-19T04:33:46;14.3;88.6
79301;SHT31;68755;51.984;5.646;2023-10-19T04:36:17;14.3;88.6
79301;SHT31;68755;51.984;5.646;2023-10-19T04:38:49;14.4;88.6
79301;SHT31;68755;51.984;5.646;2023-10-19T04:41:19;14.4;88.5
79301;SHT31;68755;51.984;5.646;2023-10-19T04:43:49;14.4;88.4
79301;SHT31;68755;51.984;5.646;2023-10-19T04:46:19;14.4;88.3
79301;SHT31;68755;51.984;5.646;2023-10-19T04:48:50;14.4;87.9
79301;SHT31;68755;51.984;5.646;2023-10-19T04:51:19;14.4;87.7
79301;SHT31;68755;51.984;5.646;2023-10-19T04:53:49;14.4;87.5
79301;SHT31;68755;51.984;5.646;2023-10-19T04:56:19;14.4;87.3
79301;SHT31;68755;51.984;5.646;2023-10-19T04:58:48;14.4;87.1
79301;SHT31;68755;51.984;5.646;2023-10-19T05:01:18;14.4;87.0
79301;SHT31;68755;51.984;5.646;2023-10-19T05:03:47;14.4;87.3
79301;SHT31;68755;51.984;5.646;2023-10-19T05:06:17;14.3;87.1
79301;SHT31;68755;51.984;5.646;2023-10-19T05:08:46;14.3;87.1
79301;SHT31;68755;51.984;5.646;2023-10-19T05:11:17;14.3;87.1
79301;SHT31;68755;51.984;5.646;2023-10-19T05:13:46;14.3;87.3
79301;SHT31;68755;51.984;5.646;2023-10-19T05:16:16;14.3;87.7
79301;SHT31;68755;51.984;5.646;2023-10-19T05:18:48;14.3;87.8
79301;SHT31;68755;51.984;5.646;2023-10-19T05:21:17;14.3;87.9
79301;SHT31;68755;51.984;5.646;2023-10-19T05:23:47;14.3;87.8
79301;SHT31;68755;51.984;5.646;2023-10-19T05:26:16;14.3;88.1
79301;SHT31;68755;51.984;5.646;2023-10-19T05:28:47;14.3;88.0
79301;SHT31;68755;51.984;5.646;2023-10-19T05:31:16;14.3;88.1
79301;SHT31;68755;51.984;5.646;2023-10-19T05:33:46;14.3;88.0
79301;SHT31;68755;51.984;5.646;2023-10-19T05:36:19;14.3;88.1
79301;SHT31;68755;51.984;5.646;2023-10-19T05:38:49;14.4;88.0
79301;SHT31;68755;51.984;5.646;2023-10-19T05:41:19;14.4;88.1
79301;SHT31;68755;51.984;5.646;2023-10-19T05:43:49;14.4;88.1
79301;SHT31;68755;51.984;5.646;2023-10-19T05:46:18;14.4;87.9
79301;SHT31;68755;51.984;5.646;2023-10-19T05:48:49;14.4;87.9
79301;SHT31;68755;51.984;5.646;2023-10-19T05:51:20;14.4;87.9
79301;SHT31;68755;51.984;5.646;2023-10-19T05:53:50;14.5;87.9
79301;SHT31;68755;51.984;5.646;2023-10-19T05:56:21;14.5;87.7
79301;SHT31;68755;51.984;5.646;2023-10-19T05:58:51;14.5;87.7
79301;SHT31;68755;51.984;5.646;2023-10-19T06:01:22;14.5;87.5
79301;SHT31;68755;51.984;5.646;2023-10-19T06:03:53;14.5;87.5
79301;SHT31;68755;51.984;5.646;2023-10-19T06:06:25;14.5;87.5
79301;SHT31;68755;51.984;5.646;2023-10-19T06:08:55;14.6;87.6
79301;SHT31;68755;51.984;5.646;2023-10-19T06:11:28;14.6;87.5
79301;SHT31;68755;51.984;5.646;2023-10-19T06:14:00;14.6;87.5
79301;SHT31;68755;51.984;5.646;2023-10-19T06:16:30;14.6;87.4
79301;SHT31;68755;51.984;5.646;2023-10-19T06:18:59;14.6;87.4
79301;SHT31;68755;51.984;5.646;2023-10-19T06:21:32;14.6;87.6
79301;SHT31;68755;51.984;5.646;2023-10-19T06:24:03;14.6;87.5
79301;SHT31;68755;51.984;5.646;2023-10-19T06:26:32;14.6;87.5
79301;SHT31;68755;51.984;5.646;2023-10-19T06:29:02;14.6;87.7
79301;SHT31;68755;51.984;5.646;2023-10-19T06:31:32;14.6;87.5
79301;SHT31;68755;51.984;5.646;2023-10-19T06:34:01;14.7;87.4
79301;SHT31;68755;51.984;5.646;2023-10-19T06:36:31;14.7;87.6
79301;SHT31;68755;51.984;5.646;2023-10-19T06:39:01;14.7;87.5
79301;SHT31;68755;51.984;5.646;2023-10-19T06:41:33;14.7;87.4
79301;SHT31;68755;51.984;5.646;2023-10-19T06:44:04;14.7;87.4
79301;SHT31;68755;51.984;5.646;2023-10-19T06:46:33;14.7;87.4
79301;SHT31;68755;51.984;5.646;2023-10-19T06:49:03;14.7;87.4
79301;SHT31;68755;51.984;5.646;2023-10-19T06:51:33;14.8;87.4
79301;SHT31;68755;51.984;5.646;2023-10-19T06:54:04;14.8;87.4
79301;SHT31;68755;51.984;5.646;2023-10-19T06:56:35;14.8;87.3
79301;SHT31;68755;51.984;5.646;2023-10-19T06:59:06;14.8;87.2
79301;SHT31;68755;51.984;5.646;2023-10-19T07:01:36;14.8;87.1
79301;SHT31;68755;51.984;5.646;2023-10-19T07:04:06;14.8;87.1
79301;SHT31;68755;51.984;5.646;2023-10-19T07:06:35;14.8;87.1
79301;SHT31;68755;51.984;5.646;2023-10-19T07:09:05;14.8;87.2
79301;SHT31;68755;51.984;5.646;2023-10-19T07:11:38;14.8;87.1
79301;SHT31;68755;51.984;5.646;2023-10-19T07:14:07;14.8;87.3
79301;SHT31;68755;51.984;5.646;2023-10-19T07:16:37;14.8;87.4
79301;SHT31;68755;51.984;5.646;2023-10-19T07:19:07;14.9;87.5
79301;SHT31;68755;51.984;5.646;2023-10-19T07:21:38;14.9;87.4
79301;SHT31;68755;51.984;5.646;2023-10-19T07:24:10;14.9;87.4
79301;SHT31;68755;51.984;5.646;2023-10-19T07:26:40;14.9;87.3
79301;SHT31;68755;51.984;5.646;2023-10-19T07:29:15;14.9;87.3
79301;SHT31;68755;51.984;5.646;2023-10-19T07:31:46;14.9;87.4
79301;SHT31;68755;51.984;5.646;2023-10-19T07:34:16;14.9;87.6
79301;SHT31;68755;51.984;5.646;2023-10-19T07:36:48;14.9;87.4
79301;SHT31;68755;51.984;5.646;2023-10-19T07:39:19;15.0;87.3
79301;SHT31;68755;51.984;5.646;2023-10-19T07:41:50;15.0;87.4
79301;SHT31;68755;51.984;5.646;2023-10-19T07:44:20;15.0;87.3
79301;SHT31;68755;51.984;5.646;2023-10-19T07:46:50;15.0;87.4
79301;SHT31;68755;51.984;5.646;2023-10-19T07:49:20;15.0;87.4
79301;SHT31;68755;51.984;5.646;2023-10-19T07:51:53;15.1;87.3
79301;SHT31;68755;51.984;5.646;2023-10-19T07:54:22;15.1;87.3
79301;SHT31;68755;51.984;5.646;2023-10-19T07:56:52;15.1;87.3
79301;SHT31;68755;51.984;5.646;2023-10-19T07:59:22;15.1;87.3
79301;SHT31;68755;51.984;5.646;2023-10-19T08:01:51;15.1;87.3
79301;SHT31;68755;51.984;5.646;2023-10-19T08:04:21;15.1;87.2
79301;SHT31;68755;51.984;5.646;2023-10-19T08:06:52;15.2;87.1
79301;SHT31;68755;51.984;5.646;2023-10-19T08:09:23;15.2;87.2
79301;SHT31;68755;51.984;5.646;2023-10-19T08:11:58;15.2;87.2
79301;SHT31;68755;51.984;5.646;2023-10-19T08:14:29;15.2;87.1
79301;SHT31;68755;51.984;5.646;2023-10-19T08:16:58;15.2;87.0
79301;SHT31;68755;51.984;5.646;2023-10-19T08:19:29;15.3;86.9
79301;SHT31;68755;51.984;5.646;2023-10-19T08:22:01;15.3;87.0
79301;SHT31;68755;51.984;5.646;2023-10-19T08:24:32;15.3;87.0
79301;SHT31;68755;51.984;5.646;2023-10-19T08:27:02;15.3;86.8
79301;SHT31;68755;51.984;5.646;2023-10-19T08:29:33;15.3;87.0
79301;SHT31;68755;51.984;5.646;2023-10-19T08:32:03;15.3;86.9
79301;SHT31;68755;51.984;5.646;2023-10-19T08:34:36;15.4;86.9
79301;SHT31;68755;51.984;5.646;2023-10-19T08:37:07;15.4;87.0
79301;SHT31;68755;51.984;5.646;2023-10-19T08:39:40;15.4;87.1
79301;SHT31;68755;51.984;5.646;2023-10-19T08:42:10;15.4;87.3
79301;SHT31;68755;51.984;5.646;2023-10-19T08:44:42;15.4;87.4
79301;SHT31;68755;51.984;5.646;2023-10-19T08:47:12;15.5;87.4
79301;SHT31;68755;51.984;5.646;2023-10-19T08:49:43;15.5;87.3
79301;SHT31;68755;51.984;5.646;2023-10-19T08:52:14;15.5;87.1
79301;SHT31;68755;51.984;5.646;2023-10-19T08:54:44;15.6;87.3
79301;SHT31;68755;51.984;5.646;2023-10-19T08:57:15;15.6;87.3
79301;SHT31;68755;51.984;5.646;2023-10-19T08:59:46;15.6;87.1
79301;SHT31;68755;51.984;5.646;2023-10-19T09:02:16;15.7;87.2
79301;SHT31;68755;51.984;5.646;2023-10-19T09:04:47;15.7;87.4
79301;SHT31;68755;51.984;5.646;2023-10-19T09:07:18;15.7;87.5
79301;SHT31;68755;51.984;5.646;2023-10-19T09:09:47;15.8;87.4
79301;SHT31;68755;51.984;5.646;2023-10-19T09:12:17;15.8;87.4
79301;SHT31;68755;51.984;5.646;2023-10-19T09:14:47;15.8;87.5
79301;SHT31;68755;51.984;5.646;2023-10-19T09:17:29;15.9;87.7
79301;SHT31;68755;51.984;5.646;2023-10-19T09:20:01;15.9;87.5
79301;SHT31;68755;51.984;5.646;2023-10-19T09:22:37;15.9;87.2
79301;SHT31;68755;51.984;5.646;2023-10-19T09:25:11;16.0;87.3
79301;SHT31;68755;51.984;5.646;2023-10-19T09:27:41;16.0;87.2
79301;SHT31;68755;51.984;5.646;2023-10-19T09:30:13;16.0;86.7
79301;SHT31;68755;51.984;5.646;2023-10-19T09:32:47;16.1;86.8
79301;SHT31;68755;51.984;5.646;2023-10-19T09:35:21;16.1;87.5
79301;SHT31;68755;51.984;5.646;2023-10-19T09:37:50;16.1;88.0
79301;SHT31;68755;51.984;5.646;2023-10-19T09:40:23;16.2;87.9
79301;SHT31;68755;51.984;5.646;2023-10-19T09:42:56;16.2;87.9
79301;SHT31;68755;51.984;5.646;2023-10-19T09:45:30;16.3;88.4
79301;SHT31;68755;51.984;5.646;2023-10-19T09:48:05;16.3;88.5
79301;SHT31;68755;51.984;5.646;2023-10-19T09:50:35;16.4;87.9
79301;SHT31;68755;51.984;5.646;2023-10-19T09:53:07;16.5;87.0
79301;SHT31;68755;51.984;5.646;2023-10-19T09:55:38;16.5;86.6
79301;SHT31;68755;51.984;5.646;2023-10-19T09:58:15;16.6;87.1
79301;SHT31;68755;51.984;5.646;2023-10-19T10:00:47;16.7;86.3
79301;SHT31;68755;51.984;5.646;2023-10-19T10:03:46;16.7;86.6
79301;SHT31;68755;51.984;5.646;2023-10-19T10:06:17;16.8;85.8
79301;SHT31;68755;51.984;5.646;2023-10-19T10:08:52;16.8;86.4
79301;SHT31;68755;51.984;5.646;2023-10-19T10:11:24;16.8;85.8
79301;SHT31;68755;51.984;5.646;2023-10-19T10:13:56;16.9;86.1
79301;SHT31;68755;51.984;5.646;2023-10-19T10:16:28;16.9;86.2
79301;SHT31;68755;51.984;5.646;2023-10-19T10:18:59;16.9;85.8
79301;SHT31;68755;51.984;5.646;2023-10-19T10:21:29;16.9;85.8
79301;SHT31;68755;51.984;5.646;2023-10-19T10:24:03;17.0;85.6
79301;SHT31;68755;51.984;5.646;2023-10-19T10:26:59;17.0;86.2
79301;SHT31;68755;51.984;5.646;2023-10-19T10:29:30;17.0;86.2
79301;SHT31;68755;51.984;5.646;2023-10-19T10:32:02;17.1;85.7
79301;SHT31;68755;51.984;5.646;2023-10-19T10:34:45;17.1;85.7
79301;SHT31;68755;51.984;5.646;2023-10-19T10:37:16;17.2;85.0
79301;SHT31;68755;51.984;5.646;2023-10-19T10:39:48;17.2;84.7
79301;SHT31;68755;51.984;5.646;2023-10-19T10:42:17;17.2;84.7
79301;SHT31;68755;51.984;5.646;2023-10-19T10:44:48;17.3;84.1
79301;SHT31;68755;51.984;5.646;2023-10-19T10:47:21;17.3;84.5
79301;SHT31;68755;51.984;5.646;2023-10-19T10:49:53;17.3;84.4
79301;SHT31;68755;51.984;5.646;2023-10-19T10:52:31;17.4;84.3
79301;SHT31;68755;51.984;5.646;2023-10-19T10:55:09;17.4;84.1
79301;SHT31;68755;51.984;5.646;2023-10-19T10:57:41;17.4;84.1
79301;SHT31;68755;51.984;5.646;2023-10-19T11:00:13;17.5;83.9
79301;SHT31;68755;51.984;5.646;2023-10-19T11:03:00;17.5;83.7
79301;SHT31;68755;51.984;5.646;2023-10-19T11:05:31;17.5;83.5
79301;SHT31;68755;51.984;5.646;2023-10-19T11:08:10;17.6;84.0
79301;SHT31;68755;51.984;5.646;2023-10-19T11:10:41;17.6;84.0
79301;SHT31;68755;51.984;5.646;2023-10-19T11:13:15;17.6;84.8
79301;SHT31;68755;51.984;5.646;2023-10-19T11:15:51;17.7;84.3
79301;SHT31;68755;51.984;5.646;2023-10-19T11:18:31;17.7;84.5
79301;SHT31;68755;51.984;5.646;2023-10-19T11:21:06;17.8;84.4
79301;SHT31;68755;51.984;5.646;2023-10-19T11:23:41;17.9;83.1
79301;SHT31;68755;51.984;5.646;2023-10-19T11:26:12;17.9;83.0
79301;SHT31;68755;51.984;5.646;2023-10-19T11:28:43;18.0;83.0
79301;SHT31;68755;51.984;5.646;2023-10-19T11:31:17;18.0;82.0
79301;SHT31;68755;51.984;5.646;2023-10-19T11:33:50;18.1;82.2
79301;SHT31;68755;51.984;5.646;2023-10-19T11:36:21;18.1;82.3
79301;SHT31;68755;51.984;5.646;2023-10-19T11:38:53;18.2;82.6
79301;SHT31;68755;51.984;5.646;2023-10-19T11:41:24;18.2;82.4
79301;SHT31;68755;51.984;5.646;2023-10-19T11:43:56;18.3;80.7
79301;SHT31;68755;51.984;5.646;2023-10-19T11:46:27;18.3;80.7
79301;SHT31;68755;51.984;5.646;2023-10-19T11:48:59;18.3;80.8
79301;SHT31;68755;51.984;5.646;2023-10-19T11:51:31;18.4;79.8
79301;SHT31;68755;51.984;5.646;2023-10-19T11:54:00;18.4;79.5
79301;SHT31;68755;51.984;5.646;2023-10-19T11:56:30;18.4;79.7
79301;SHT31;68755;51.984;5.646;2023-10-19T11:58:59;18.5;79.2
79301;SHT31;68755;51.984;5.646;2023-10-19T12:01:29;18.5;79.2
79301;SHT31;68755;51.984;5.646;2023-10-19T12:04:00;18.5;78.3
79301;SHT31;68755;51.984;5.646;2023-10-19T12:06:30;18.5;77.9
79301;SHT31;68755;51.984;5.646;2023-10-19T12:09:01;18.5;77.6
79301;SHT31;68755;51.984;5.646;2023-10-19T12:11:35;18.5;77.5
79301;SHT31;68755;51.984;5.646;2023-10-19T12:14:05;18.5;77.9
79301;SHT31;68755;51.984;5.646;2023-10-19T12:16:39;18.5;77.9
79301;SHT31;68755;51.984;5.646;2023-10-19T12:19:08;18.5;77.8
79301;SHT31;68755;51.984;5.646;2023-10-19T12:21:38;18.5;77.4
79301;SHT31;68755;51.984;5.646;2023-10-19T12:24:12;18.5;77.9
79301;SHT31;68755;51.984;5.646;2023-10-19T12:26:42;18.5;78.1
79301;SHT31;68755;51.984;5.646;2023-10-19T12:29:14;18.5;78.2
79301;SHT31;68755;51.984;5.646;2023-10-19T12:31:48;18.5;78.6
79301;SHT31;68755;51.984;5.646;2023-10-19T12:34:18;18.5;78.7
79301;SHT31;68755;51.984;5.646;2023-10-19T12:36:50;18.5;79.2
79301;SHT31;68755;51.984;5.646;2023-10-19T12:39:19;18.5;79.0
79301;SHT31;68755;51.984;5.646;2023-10-19T12:42:09;18.5;78.4
79301;SHT31;68755;51.984;5.646;2023-10-19T12:44:42;18.5;78.1
79301;SHT31;68755;51.984;5.646;2023-10-19T12:47:11;18.6;78.0
79301;SHT31;68755;51.984;5.646;2023-10-19T12:49:43;18.6;78.1
79301;SHT31;68755;51.984;5.646;2023-10-19T12:52:14;18.6;77.7
79301;SHT31;68755;51.984;5.646;2023-10-19T12:54:43;18.6;78.0
79301;SHT31;68755;51.984;5.646;2023-10-19T12:57:16;18.6;77.8
79301;SHT31;68755;51.984;5.646;2023-10-19T12:59:48;18.6;77.5
79301;SHT31;68755;51.984;5.646;2023-10-19T13:02:17;18.6;77.4
79301;SHT31;68755;51.984;5.646;2023-10-19T13:04:48;18.6;77.6
79301;SHT31;68755;51.984;5.646;2023-10-19T13:07:18;18.6;77.5
79301;SHT31;68755;51.984;5.646;2023-10-19T13:09:50;18.6;77.5
79301;SHT31;68755;51.984;5.646;2023-10-19T13:12:21;18.5;77.6
79301;SHT31;68755;51.984;5.646;2023-10-19T13:14:53;18.5;78.2
79301;SHT31;68755;51.984;5.646;2023-10-19T13:17:23;18.5;78.9
79301;SHT31;68755;51.984;5.646;2023-10-19T13:19:54;18.5;79.0
79301;SHT31;68755;51.984;5.646;2023-10-19T13:22:28;18.5;79.6
79301;SHT31;68755;51.984;5.646;2023-10-19T13:25:01;18.5;80.0
79301;SHT31;68755;51.984;5.646;2023-10-19T13:27:31;18.5;80.1
79301;SHT31;68755;51.984;5.646;2023-10-19T13:30:01;18.5;80.2
79301;SHT31;68755;51.984;5.646;2023-10-19T13:32:32;18.5;80.1
79301;SHT31;68755;51.984;5.646;2023-10-19T13:35:02;18.5;80.1
79301;SHT31;68755;51.984;5.646;2023-10-19T13:37:32;18.5;80.3
79301;SHT31;68755;51.984;5.646;2023-10-19T13:40:04;18.5;80.7
79301;SHT31;68755;51.984;5.646;2023-10-19T13:42:35;18.5;80.3
79301;SHT31;68755;51.984;5.646;2023-10-19T13:45:06;18.5;80.6
79301;SHT31;68755;51.984;5.646;2023-10-19T13:47:39;18.5;80.8
79301;SHT31;68755;51.984;5.646;2023-10-19T13:50:12;18.5;80.7
79301;SHT31;68755;51.984;5.646;2023-10-19T13:52:42;18.5;80.7
79301;SHT31;68755;51.984;5.646;2023-10-19T13:55:11;18.5;80.8
79301;SHT31;68755;51.984;5.646;2023-10-19T13:57:44;18.5;80.1
79301;SHT31;68755;51.984;5.646;2023-10-19T14:00:17;18.5;80.5
79301;SHT31;68755;51.984;5.646;2023-10-19T14:02:58;18.5;79.8
79301;SHT31;68755;51.984;5.646;2023-10-19T14:05:29;18.5;79.8
79301;SHT31;68755;51.984;5.646;2023-10-19T14:07:58;18.5;80.2
79301;SHT31;68755;51.984;5.646;2023-10-19T14:10:28;18.5;80.5
79301;SHT31;68755;51.984;5.646;2023-10-19T14:12:58;18.4;80.2
79301;SHT31;68755;51.984;5.646;2023-10-19T14:15:28;18.4;80.3
79301;SHT31;68755;51.984;5.646;2023-10-19T14:18:01;18.4;80.5
79301;SHT31;68755;51.984;5.646;2023-10-19T14:20:31;18.4;80.6
79301;SHT31;68755;51.984;5.646;2023-10-19T14:23:02;18.4;80.1
79301;SHT31;68755;51.984;5.646;2023-10-19T14:25:36;18.4;80.5
79301;SHT31;68755;51.984;5.646;2023-10-19T14:28:08;18.4;80.8
79301;SHT31;68755;51.984;5.646;2023-10-19T14:30:41;18.3;80.7
79301;SHT31;68755;51.984;5.646;2023-10-19T14:33:10;18.3;80.9
79301;SHT31;68755;51.984;5.646;2023-10-19T14:35:40;18.3;81.3
79301;SHT31;68755;51.984;5.646;2023-10-19T14:38:11;18.3;80.9
79301;SHT31;68755;51.984;5.646;2023-10-19T14:40:41;18.3;80.8
79301;SHT31;68755;51.984;5.646;2023-10-19T14:43:15;18.3;81.3
79301;SHT31;68755;51.984;5.646;2023-10-19T14:45:45;18.3;81.4
79301;SHT31;68755;51.984;5.646;2023-10-19T14:48:14;18.2;81.3
79301;SHT31;68755;51.984;5.646;2023-10-19T14:50:48;18.2;81.6
79301;SHT31;68755;51.984;5.646;2023-10-19T14:53:18;18.2;81.8
79301;SHT31;68755;51.984;5.646;2023-10-19T14:55:48;18.2;81.9
79301;SHT31;68755;51.984;5.646;2023-10-19T14:58:17;18.2;81.7
79301;SHT31;68755;51.984;5.646;2023-10-19T15:00:47;18.2;81.4
79301;SHT31;68755;51.984;5.646;2023-10-19T15:03:22;18.2;81.6
79301;SHT31;68755;51.984;5.646;2023-10-19T15:05:53;18.1;81.6
79301;SHT31;68755;51.984;5.646;2023-10-19T15:08:22;18.1;81.7
79301;SHT31;68755;51.984;5.646;2023-10-19T15:10:54;18.1;81.6
79301;SHT31;68755;51.984;5.646;2023-10-19T15:13:24;18.1;81.8
79301;SHT31;68755;51.984;5.646;2023-10-19T15:15:54;18.0;81.8
79301;SHT31;68755;51.984;5.646;2023-10-19T15:18:24;18.0;82.0
79301;SHT31;68755;51.984;5.646;2023-10-19T15:20:54;18.0;81.8
79301;SHT31;68755;51.984;5.646;2023-10-19T15:23:24;18.0;81.8
79301;SHT31;68755;51.984;5.646;2023-10-19T15:25:54;18.0;82.0
79301;SHT31;68755;51.984;5.646;2023-10-19T15:28:23;17.9;81.9
79301;SHT31;68755;51.984;5.646;2023-10-19T15:30:53;17.9;81.8
79301;SHT31;68755;51.984;5.646;2023-10-19T15:33:23;17.9;81.8
79301;SHT31;68755;51.984;5.646;2023-10-19T15:35:55;17.9;81.8
79301;SHT31;68755;51.984;5.646;2023-10-19T15:38:25;17.9;81.9
79301;SHT31;68755;51.984;5.646;2023-10-19T15:40:54;17.9;82.1
79301;SHT31;68755;51.984;5.646;2023-10-19T15:43:24;17.8;82.1
79301;SHT31;68755;51.984;5.646;2023-10-19T15:45:56;17.8;82.3
79301;SHT31;68755;51.984;5.646;2023-10-19T15:48:31;17.8;82.7
79301;SHT31;68755;51.984;5.646;2023-10-19T15:51:04;17.8;82.8
79301;SHT31;68755;51.984;5.646;2023-10-19T15:53:34;17.8;82.5
79301;SHT31;68755;51.984;5.646;2023-10-19T15:56:04;17.8;82.6
79301;SHT31;68755;51.984;5.646;2023-10-19T15:58:34;17.9;82.5
79301;SHT31;68755;51.984;5.646;2023-10-19T16:01:04;17.9;82.4
79301;SHT31;68755;51.984;5.646;2023-10-19T16:03:34;17.9;82.3
79301;SHT31;68755;51.984;5.646;2023-10-19T16:06:07;17.9;81.9
79301;SHT31;68755;51.984;5.646;2023-10-19T16:08:37;17.9;81.7
79301;SHT31;68755;51.984;5.646;2023-10-19T16:11:06;17.9;81.5
79301;SHT31;68755;51.984;5.646;2023-10-19T16:13:36;17.8;81.5
79301;SHT31;68755;51.984;5.646;2023-10-19T16:16:07;17.8;81.4
79301;SHT31;68755;51.984;5.646;2023-10-19T16:18:40;17.8;81.3
79301;SHT31;68755;51.984;5.646;2023-10-19T16:21:09;17.8;81.2
79301;SHT31;68755;51.984;5.646;2023-10-19T16:23:39;17.7;81.4
79301;SHT31;68755;51.984;5.646;2023-10-19T16:26:08;17.7;81.4
79301;SHT31;68755;51.984;5.646;2023-10-19T16:28:38;17.7;81.5
79301;SHT31;68755;51.984;5.646;2023-10-19T16:31:08;17.6;81.5